createdAt,value
2022-12-28T00:01:45.684Z,0.58
2022-12-28T00:06:50.692Z,0.68
2022-12-28T00:11:52.849Z,0.65
2022-12-28T00:16:54.945Z,0.65
2022-12-28T00:21:57.035Z,0.72
2022-12-28T00:26:59.161Z,0.64
2022-12-28T00:32:01.361Z,0.61
2022-12-28T00:37:09.320Z,0.66
2022-12-28T00:42:14.693Z,0.72
2022-12-28T00:47:16.729Z,0.70
2022-12-28T00:52:18.871Z,0.74
2022-12-28T00:57:21.000Z,0.84
2022-12-28T01:02:23.333Z,0.65
2022-12-28T01:07:25.392Z,0.72
2022-12-28T01:12:33.099Z,0.85
2022-12-28T01:17:38.898Z,0.75
2022-12-28T01:22:41.031Z,0.75
2022-12-28T01:27:43.137Z,0.72
2022-12-28T01:32:45.254Z,0.69
2022-12-28T01:37:47.418Z,0.79
2022-12-28T01:42:49.574Z,0.65
2022-12-28T01:47:55.188Z,0.73
2022-12-28T01:53:03.070Z,0.71
2022-12-28T01:58:08.222Z,0.65
2022-12-28T02:03:18.944Z,0.79
2022-12-28T02:08:32.484Z,0.81
2022-12-28T02:13:35.618Z,0.68
2022-12-28T02:18:57.921Z,0.65
2022-12-28T02:23:59.997Z,0.68
2022-12-28T02:29:30.114Z,0.76
2022-12-28T02:34:39.413Z,0.94
2022-12-28T02:39:46.359Z,0.76
2022-12-28T02:45:08.482Z,0.75
2022-12-28T02:50:15.493Z,0.81
2022-12-28T02:56:12.119Z,0.91
2022-12-28T03:01:52.307Z,0.92
2022-12-28T03:07:29.303Z,0.88
2022-12-28T03:12:57.129Z,0.85
2022-12-28T03:18:33.598Z,0.81
2022-12-28T03:23:56.717Z,0.74
2022-12-28T03:29:21.795Z,0.78
2022-12-28T03:34:24.275Z,0.74
2022-12-28T03:39:47.900Z,0.86
2022-12-28T03:45:01.078Z,0.85
2022-12-28T03:50:05.433Z,0.78
2022-12-28T03:55:08.918Z,0.66
2022-12-28T04:00:11.552Z,0.65
2022-12-28T04:05:22.676Z,0.64
2022-12-28T04:10:25.238Z,0.64
2022-12-28T04:15:27.737Z,0.55
2022-12-28T04:20:29.867Z,0.56
2022-12-28T04:25:31.977Z,0.60
2022-12-28T04:30:34.135Z,0.62
2022-12-28T04:35:36.320Z,0.64
2022-12-28T04:40:38.789Z,0.69
2022-12-28T04:45:40.977Z,0.78
2022-12-28T04:50:43.049Z,0.80
2022-12-28T04:55:45.159Z,0.78
2022-12-28T05:00:47.221Z,0.79
2022-12-28T05:05:49.255Z,0.77
2022-12-28T05:10:51.328Z,0.75
2022-12-28T05:15:53.405Z,0.81
2022-12-28T05:21:00.455Z,0.79
2022-12-28T05:26:03.507Z,0.78
2022-12-28T05:31:08.111Z,0.79
2022-12-28T05:36:16.464Z,0.81
2022-12-28T05:41:21.212Z,0.75
2022-12-28T05:46:28.553Z,0.83
2022-12-28T05:51:32.694Z,0.84
2022-12-28T05:56:34.864Z,0.84
2022-12-28T06:01:40.385Z,0.79
2022-12-28T06:06:43.028Z,0.72
2022-12-28T06:11:45.968Z,0.93
2022-12-28T06:16:48.088Z,0.96
2022-12-28T06:21:50.228Z,0.91
2022-12-28T06:26:52.263Z,0.77
2022-12-28T06:31:54.916Z,0.91
2022-12-28T06:36:58.225Z,0.91
2022-12-28T06:42:00.252Z,0.87
2022-12-28T06:47:02.263Z,0.89
2022-12-28T06:52:04.413Z,0.95
2022-12-28T06:57:06.477Z,1.00
2022-12-28T07:02:10.243Z,1.09
2022-12-28T07:07:12.417Z,1.15
2022-12-28T07:12:14.477Z,1.21
2022-12-28T07:17:16.637Z,1.31
2022-12-28T07:22:18.669Z,1.36
2022-12-28T07:27:20.749Z,1.40
2022-12-28T07:32:22.817Z,1.52
2022-12-28T07:37:24.861Z,1.58
2022-12-28T07:42:29.483Z,1.74
2022-12-28T07:47:31.552Z,1.80
2022-12-28T07:52:36.167Z,1.90
2022-12-28T07:57:38.230Z,1.89
2022-12-28T08:02:40.368Z,2.00
2022-12-28T08:07:42.510Z,2.01
2022-12-28T08:12:44.563Z,2.03
2022-12-28T08:17:46.655Z,2.04
2022-12-28T08:22:49.381Z,2.06
2022-12-28T08:27:51.443Z,2.09
2022-12-28T08:32:53.499Z,2.11
2022-12-28T08:37:56.190Z,2.09
2022-12-28T08:42:59.498Z,2.12
2022-12-28T08:48:01.526Z,2.08
2022-12-28T08:53:03.615Z,2.01
2022-12-28T08:58:05.720Z,2.19
2022-12-28T09:03:07.896Z,2.26
2022-12-28T09:08:10.968Z,2.29
2022-12-28T09:13:12.988Z,2.38
2022-12-28T09:18:15.050Z,2.38
2022-12-28T09:23:17.072Z,2.46
2022-12-28T09:28:19.121Z,2.54
2022-12-28T09:34:05.476Z,2.51
2022-12-28T09:39:04.698Z,2.39
2022-12-28T09:44:12.878Z,2.46
2022-12-28T09:49:20.995Z,2.41
2022-12-28T09:54:23.165Z,2.34
2022-12-28T09:59:31.721Z,2.53
2022-12-28T10:04:33.781Z,2.53
2022-12-28T10:09:35.974Z,2.51
2022-12-28T10:14:38.015Z,2.54
2022-12-28T10:19:40.696Z,2.51
2022-12-28T10:24:43.613Z,2.48
2022-12-28T10:29:45.732Z,2.41
2022-12-28T10:35:02.129Z,2.63
2022-12-28T10:40:18.822Z,2.45
2022-12-28T10:45:41.046Z,2.72
2022-12-28T10:50:53.429Z,2.65
2022-12-28T10:56:13.831Z,2.69
2022-12-28T11:01:20.140Z,2.48
2022-12-28T11:06:28.149Z,2.48
2022-12-28T11:11:30.831Z,2.34
2022-12-28T11:16:37.570Z,2.30
2022-12-28T11:21:42.643Z,2.24
2022-12-28T11:26:48.165Z,2.30
2022-12-28T11:31:56.552Z,2.35
2022-12-28T11:36:58.858Z,2.25
2022-12-28T11:47:36.526Z,2.13
2022-12-28T11:52:46.722Z,2.10
2022-12-28T11:57:48.840Z,1.94
2022-12-28T12:02:58.282Z,2.02
2022-12-28T12:08:00.445Z,1.95
2022-12-28T12:13:24.403Z,1.92
2022-12-28T12:18:29.792Z,1.85
2022-12-28T12:23:40.963Z,1.85
2022-12-28T12:28:49.979Z,1.90
2022-12-28T12:33:57.645Z,1.81
2022-12-28T12:39:19.160Z,1.82
2022-12-28T12:44:27.510Z,1.72
2022-12-28T12:49:38.297Z,1.54
2022-12-28T12:54:58.876Z,1.60
2022-12-28T13:00:22.317Z,1.52
2022-12-28T13:05:28.585Z,1.35
2022-12-28T13:10:41.158Z,1.34
2022-12-28T13:15:44.452Z,1.23
2022-12-28T13:20:59.146Z,1.25
2022-12-28T13:26:02.982Z,1.15
2022-12-28T13:31:15.981Z,0.86
2022-12-28T13:36:19.519Z,1.04
2022-12-28T13:41:27.078Z,1.05
2022-12-28T13:46:31.161Z,0.96
2022-12-28T13:51:38.005Z,0.95
2022-12-28T13:56:42.822Z,0.86
2022-12-28T14:01:49.883Z,0.67
2022-12-28T14:06:52.154Z,0.81
2022-12-28T14:11:54.783Z,0.82
2022-12-28T14:16:57.222Z,0.83
2022-12-28T14:21:59.616Z,0.81
2022-12-28T14:27:01.761Z,0.80
2022-12-28T14:32:07.507Z,0.81
2022-12-28T14:37:46.694Z,0.90
2022-12-28T14:42:51.103Z,0.79
2022-12-28T14:47:56.494Z,0.59
2022-12-28T14:53:08.222Z,0.82
2022-12-28T14:58:17.671Z,1.07
2022-12-28T15:03:22.417Z,0.78
2022-12-28T15:08:27.411Z,0.72
2022-12-28T15:13:29.541Z,0.73
2022-12-28T15:18:31.929Z,0.75
2022-12-28T15:23:34.015Z,0.71
2022-12-28T15:28:36.324Z,0.73
2022-12-28T15:33:39.184Z,0.69
2022-12-28T15:38:41.323Z,0.66
2022-12-28T15:43:43.390Z,0.70
2022-12-28T15:48:47.693Z,0.64
2022-12-28T15:53:49.926Z,0.64
2022-12-28T15:58:57.739Z,0.83
2022-12-28T16:04:02.170Z,0.80
2022-12-28T16:09:04.486Z,0.73
2022-12-28T16:14:08.951Z,0.81
2022-12-28T16:19:14.013Z,0.85
2022-12-28T16:24:16.800Z,0.78
2022-12-28T16:29:18.965Z,0.88
2022-12-28T16:34:21.073Z,0.93
2022-12-28T16:39:23.529Z,0.99
2022-12-28T16:44:27.532Z,1.02
2022-12-28T16:49:32.556Z,1.00
2022-12-28T16:54:34.691Z,1.01
2022-12-28T16:59:36.809Z,1.07
2022-12-28T17:04:38.893Z,1.06
2022-12-28T17:09:46.693Z,1.07
2022-12-28T17:14:51.880Z,1.09
2022-12-28T17:19:54.918Z,1.08
2022-12-28T17:24:56.991Z,1.08
2022-12-28T17:29:59.117Z,1.03
2022-12-28T17:35:01.209Z,1.06
2022-12-28T17:40:04.285Z,1.07
2022-12-28T17:45:11.468Z,1.07
2022-12-28T17:50:14.254Z,1.08
2022-12-28T17:55:16.306Z,1.10
2022-12-28T18:00:20.170Z,1.13
2022-12-28T18:05:22.270Z,1.13
2022-12-28T18:10:24.559Z,1.15
2022-12-28T18:15:32.806Z,0.98
2022-12-28T18:20:35.252Z,1.11
2022-12-28T18:25:38.034Z,1.01
2022-12-28T18:30:41.039Z,0.99
2022-12-28T18:35:43.195Z,0.97
2022-12-28T18:40:52.346Z,1.01
2022-12-28T18:45:59.796Z,0.94
2022-12-28T18:51:06.180Z,0.98
2022-12-28T18:56:11.713Z,1.03
2022-12-28T19:06:41.794Z,0.96
2022-12-28T19:11:45.030Z,0.89
2022-12-28T19:16:47.249Z,0.96
2022-12-28T19:21:53.644Z,1.01
2022-12-28T19:26:58.863Z,1.11
2022-12-28T19:32:00.991Z,1.18
2022-12-28T19:37:03.037Z,1.22
2022-12-28T19:42:05.165Z,1.24
2022-12-28T19:47:07.199Z,1.32
2022-12-28T19:52:09.312Z,1.31
2022-12-28T19:57:11.372Z,1.31
2022-12-28T20:02:13.531Z,1.23
2022-12-28T20:07:15.661Z,1.26
2022-12-28T20:12:22.602Z,1.21
2022-12-28T20:17:24.719Z,1.11
2022-12-28T20:22:26.848Z,1.15
2022-12-28T20:27:30.603Z,1.10
2022-12-28T20:32:32.789Z,1.25
2022-12-28T20:37:34.960Z,1.31
2022-12-28T20:42:55.419Z,1.32
2022-12-28T20:47:57.434Z,1.24
2022-12-28T20:52:59.548Z,1.45
2022-12-28T20:58:01.599Z,1.37
2022-12-28T21:03:03.832Z,1.39
2022-12-28T21:08:06.007Z,1.40
2022-12-28T21:13:08.146Z,1.46
2022-12-28T21:18:10.342Z,1.43
2022-12-28T21:23:12.619Z,1.46
2022-12-28T21:28:14.823Z,1.53
2022-12-28T21:33:16.894Z,1.57
2022-12-28T21:38:19.004Z,1.54
2022-12-28T21:43:21.149Z,1.52
2022-12-28T21:48:23.479Z,1.50
2022-12-28T21:53:25.576Z,1.48
2022-12-28T21:58:27.722Z,1.48
2022-12-28T22:03:48.359Z,1.51
2022-12-28T22:09:08.745Z,1.53
2022-12-28T22:14:10.881Z,1.57
2022-12-28T22:19:13.152Z,1.57
2022-12-28T22:24:15.172Z,1.61
2022-12-28T22:29:17.509Z,1.60
2022-12-28T22:34:19.729Z,1.59
2022-12-28T22:39:21.933Z,1.45
2022-12-28T22:44:26.326Z,1.56
2022-12-28T22:49:28.502Z,1.60
2022-12-28T22:54:30.601Z,1.56
2022-12-28T22:59:34.911Z,1.63
2022-12-28T23:04:37.089Z,1.59
2022-12-28T23:09:39.211Z,1.62
2022-12-28T23:14:59.875Z,1.64
2022-12-28T23:20:20.608Z,1.63
2022-12-28T23:25:42.588Z,1.72
2022-12-28T23:30:47.916Z,1.85
2022-12-28T23:35:50.036Z,1.82
2022-12-28T23:41:12.049Z,1.76
2022-12-28T23:46:14.249Z,1.68
2022-12-28T23:51:18.090Z,1.65
2022-12-28T23:56:20.210Z,1.59
